sensor_id;sensor_type;location;lat;lon;timestamp;temperature;humidity
13794;DHT22;31160;49.500;7.772;2022-09-20T00:01:13;8.00;99.90
13794;DHT22;31160;49.500;7.772;2022-09-20T00:03:43;7.90;99.90
13794;DHT22;31160;49.500;7.772;2022-09-20T00:06:16;7.80;99.90
13794;DHT22;31160;49.500;7.772;2022-09-20T00:08:45;7.90;99.90
13794;DHT22;31160;49.500;7.772;2022-09-20T00:11:14;7.80;99.90
13794;DHT22;31160;49.500;7.772;2022-09-20T00:13:43;7.80;99.90
13794;DHT22;31160;49.500;7.772;2022-09-20T00:16:14;7.80;99.90
13794;DHT22;31160;49.500;7.772;2022-09-20T00:18:41;7.80;99.90
13794;DHT22;31160;49.500;7.772;2022-09-20T00:21:15;7.80;99.90
13794;DHT22;31160;49.500;7.772;2022-09-20T00:23:42;7.80;99.90
13794;DHT22;31160;49.500;7.772;2022-09-20T00:26:09;7.80;99.90
13794;DHT22;31160;49.500;7.772;2022-09-20T00:28:36;7.60;99.90
13794;DHT22;31160;49.500;7.772;2022-09-20T00:31:03;7.60;99.90
13794;DHT22;31160;49.500;7.772;2022-09-20T00:33:30;7.60;99.90
13794;DHT22;31160;49.500;7.772;2022-09-20T00:36:15;7.60;99.90
13794;DHT22;31160;49.500;7.772;2022-09-20T00:38:42;7.50;99.90
13794;DHT22;31160;49.500;7.772;2022-09-20T00:41:09;7.60;99.90
13794;DHT22;31160;49.500;7.772;2022-09-20T00:43:44;7.50;99.90
13794;DHT22;31160;49.500;7.772;2022-09-20T00:46:37;7.60;99.90
13794;DHT22;31160;49.500;7.772;2022-09-20T00:49:20;7.50;99.90
13794;DHT22;31160;49.500;7.772;2022-09-20T00:51:53;7.50;99.90
13794;DHT22;31160;49.500;7.772;2022-09-20T00:54:22;7.40;99.90
13794;DHT22;31160;49.500;7.772;2022-09-20T00:56:51;7.40;99.90
13794;DHT22;31160;49.500;7.772;2022-09-20T00:59:28;7.30;99.90
13794;DHT22;31160;49.500;7.772;2022-09-20T01:02:10;7.30;99.90
13794;DHT22;31160;49.500;7.772;2022-09-20T01:04:40;7.30;99.90
13794;DHT22;31160;49.500;7.772;2022-09-20T01:07:10;7.30;99.90
13794;DHT22;31160;49.500;7.772;2022-09-20T01:09:38;7.30;99.90
13794;DHT22;31160;49.500;7.772;2022-09-20T01:12:09;7.20;99.90
13794;DHT22;31160;49.500;7.772;2022-09-20T01:14:38;7.20;99.90
13794;DHT22;31160;49.500;7.772;2022-09-20T01:17:07;7.20;99.90
13794;DHT22;31160;49.500;7.772;2022-09-20T01:19:46;7.20;99.90
13794;DHT22;31160;49.500;7.772;2022-09-20T01:22:45;7.10;99.90
13794;DHT22;31160;49.500;7.772;2022-09-20T01:27:58;7.10;99.90
13794;DHT22;31160;49.500;7.772;2022-09-20T01:30:30;7.00;99.90
13794;DHT22;31160;49.500;7.772;2022-09-20T01:33:22;6.90;99.90
13794;DHT22;31160;49.500;7.772;2022-09-20T01:35:54;7.00;99.90
13794;DHT22;31160;49.500;7.772;2022-09-20T01:41:08;6.90;99.90
13794;DHT22;31160;49.500;7.772;2022-09-20T01:46:43;6.80;99.90
13794;DHT22;31160;49.500;7.772;2022-09-20T01:52:27;6.80;99.90
13794;DHT22;31160;49.500;7.772;2022-09-20T02:00:57;6.70;99.90
13794;DHT22;31160;49.500;7.772;2022-09-20T02:10:02;6.60;99.90
13794;DHT22;31160;49.500;7.772;2022-09-20T02:15:23;6.50;99.90
13794;DHT22;31160;49.500;7.772;2022-09-20T02:18:08;6.40;99.90
13794;DHT22;31160;49.500;7.772;2022-09-20T02:21:00;6.50;99.90
13794;DHT22;31160;49.500;7.772;2022-09-20T02:29:30;6.40;99.90
13794;DHT22;31160;49.500;7.772;2022-09-20T02:35:09;6.30;99.90
13794;DHT22;31160;49.500;7.772;2022-09-20T02:37:47;6.30;99.90
13794;DHT22;31160;49.500;7.772;2022-09-20T02:41:21;6.40;99.90
13794;DHT22;31160;49.500;7.772;2022-09-20T02:48:44;6.30;99.90
13794;DHT22;31160;49.500;7.772;2022-09-20T02:57:01;6.10;99.90
13794;DHT22;31160;49.500;7.772;2022-09-20T03:02:55;6.10;99.90
13794;DHT22;31160;49.500;7.772;2022-09-20T03:05:45;6.10;99.90
13794;DHT22;31160;49.500;7.772;2022-09-20T03:08:48;6.20;99.90
13794;DHT22;31160;49.500;7.772;2022-09-20T03:14:05;6.30;99.90
13794;DHT22;31160;49.500;7.772;2022-09-20T03:17:15;6.40;99.90
13794;DHT22;31160;49.500;7.772;2022-09-20T03:28:53;6.30;99.90
13794;DHT22;31160;49.500;7.772;2022-09-20T03:34:38;6.00;99.90
13794;DHT22;31160;49.500;7.772;2022-09-20T03:37:35;6.00;99.90
13794;DHT22;31160;49.500;7.772;2022-09-20T03:40:35;6.10;99.90
13794;DHT22;31160;49.500;7.772;2022-09-20T03:46:01;6.00;99.90
13794;DHT22;31160;49.500;7.772;2022-09-20T03:48:45;6.10;99.90
13794;DHT22;31160;49.500;7.772;2022-09-20T04:05:23;6.80;99.90
13794;DHT22;31160;49.500;7.772;2022-09-20T04:14:46;6.90;99.90
13794;DHT22;31160;49.500;7.772;2022-09-20T04:17:53;6.90;99.90
13794;DHT22;31160;49.500;7.772;2022-09-20T04:23:42;6.80;99.90
13794;DHT22;31160;49.500;7.772;2022-09-20T04:26:10;6.90;99.90
13794;DHT22;31160;49.500;7.772;2022-09-20T04:29:11;7.00;99.90
13794;DHT22;31160;49.500;7.772;2022-09-20T04:31:48;7.00;99.90
13794;DHT22;31160;49.500;7.772;2022-09-20T04:34:27;7.10;99.90
13794;DHT22;31160;49.500;7.772;2022-09-20T04:37:35;7.00;99.90
13794;DHT22;31160;49.500;7.772;2022-09-20T04:40:07;7.00;99.90
13794;DHT22;31160;49.500;7.772;2022-09-20T04:51:14;7.10;99.90
13794;DHT22;31160;49.500;7.772;2022-09-20T04:54:24;7.20;99.90
13794;DHT22;31160;49.500;7.772;2022-09-20T05:00:07;7.20;99.90
13794;DHT22;31160;49.500;7.772;2022-09-20T05:08:04;7.20;99.90
13794;DHT22;31160;49.500;7.772;2022-09-20T05:16:21;7.20;99.90
13794;DHT22;31160;49.500;7.772;2022-09-20T05:21:57;7.20;99.90
13794;DHT22;31160;49.500;7.772;2022-09-20T05:33:20;7.40;99.90
13794;DHT22;31160;49.500;7.772;2022-09-20T06:01:09;7.90;99.90
13794;DHT22;31160;49.500;7.772;2022-09-20T06:03:44;7.90;99.90
13794;DHT22;31160;49.500;7.772;2022-09-20T06:06:27;7.90;99.90
13794;DHT22;31160;49.500;7.772;2022-09-20T06:23:40;8.20;99.90
13794;DHT22;31160;49.500;7.772;2022-09-20T06:26:16;8.30;99.90
13794;DHT22;31160;49.500;7.772;2022-09-20T06:28:48;8.20;99.90
13794;DHT22;31160;49.500;7.772;2022-09-20T06:31:23;8.40;99.90
13794;DHT22;31160;49.500;7.772;2022-09-20T06:33:59;8.50;99.90
13794;DHT22;31160;49.500;7.772;2022-09-20T06:36:31;8.60;99.90
13794;DHT22;31160;49.500;7.772;2022-09-20T06:42:05;8.70;99.90
13794;DHT22;31160;49.500;7.772;2022-09-20T06:44:32;8.70;99.90
13794;DHT22;31160;49.500;7.772;2022-09-20T06:46:58;8.70;99.90
13794;DHT22;31160;49.500;7.772;2022-09-20T06:49:26;8.90;99.90
13794;DHT22;31160;49.500;7.772;2022-09-20T06:51:54;9.00;99.90
13794;DHT22;31160;49.500;7.772;2022-09-20T06:54:21;9.10;99.90
13794;DHT22;31160;49.500;7.772;2022-09-20T06:56:49;9.10;99.90
13794;DHT22;31160;49.500;7.772;2022-09-20T06:59:16;9.20;99.90
13794;DHT22;31160;49.500;7.772;2022-09-20T07:01:43;9.30;99.90
13794;DHT22;31160;49.500;7.772;2022-09-20T07:04:10;9.50;99.90
13794;DHT22;31160;49.500;7.772;2022-09-20T07:06:37;9.70;99.90
13794;DHT22;31160;49.500;7.772;2022-09-20T07:09:04;9.90;99.90
13794;DHT22;31160;49.500;7.772;2022-09-20T07:11:31;10.10;99.90
13794;DHT22;31160;49.500;7.772;2022-09-20T07:14:00;10.20;99.90
13794;DHT22;31160;49.500;7.772;2022-09-20T07:16:28;10.30;99.90
13794;DHT22;31160;49.500;7.772;2022-09-20T07:18:55;10.40;99.90
13794;DHT22;31160;49.500;7.772;2022-09-20T07:21:22;10.50;99.90
13794;DHT22;31160;49.500;7.772;2022-09-20T07:23:49;10.50;99.90
13794;DHT22;31160;49.500;7.772;2022-09-20T07:26:23;10.60;99.90
13794;DHT22;31160;49.500;7.772;2022-09-20T07:28:51;10.70;99.90
13794;DHT22;31160;49.500;7.772;2022-09-20T07:31:20;10.80;99.90
13794;DHT22;31160;49.500;7.772;2022-09-20T07:33:48;10.80;99.90
13794;DHT22;31160;49.500;7.772;2022-09-20T07:36:15;10.50;99.90
13794;DHT22;31160;49.500;7.772;2022-09-20T07:38:46;10.40;99.90
13794;DHT22;31160;49.500;7.772;2022-09-20T07:41:14;10.30;99.90
13794;DHT22;31160;49.500;7.772;2022-09-20T07:43:40;10.30;99.90
13794;DHT22;31160;49.500;7.772;2022-09-20T07:46:08;10.70;99.90
13794;DHT22;31160;49.500;7.772;2022-09-20T07:48:36;10.90;99.90
13794;DHT22;31160;49.500;7.772;2022-09-20T07:51:06;11.20;99.90
13794;DHT22;31160;49.500;7.772;2022-09-20T07:53:35;11.30;99.90
13794;DHT22;31160;49.500;7.772;2022-09-20T07:56:07;11.50;99.90
13794;DHT22;31160;49.500;7.772;2022-09-20T07:58:35;11.70;99.90
13794;DHT22;31160;49.500;7.772;2022-09-20T08:01:05;11.60;99.90
13794;DHT22;31160;49.500;7.772;2022-09-20T08:03:33;11.60;99.90
13794;DHT22;31160;49.500;7.772;2022-09-20T08:06:09;11.70;99.90
13794;DHT22;31160;49.500;7.772;2022-09-20T08:08:38;11.80;99.90
13794;DHT22;31160;49.500;7.772;2022-09-20T08:11:08;12.00;99.90
13794;DHT22;31160;49.500;7.772;2022-09-20T08:13:40;12.10;99.90
13794;DHT22;31160;49.500;7.772;2022-09-20T08:16:29;11.90;99.90
13794;DHT22;31160;49.500;7.772;2022-09-20T08:19:00;11.60;99.90
13794;DHT22;31160;49.500;7.772;2022-09-20T08:21:31;12.10;99.90
13794;DHT22;31160;49.500;7.772;2022-09-20T08:23:59;12.40;99.90
13794;DHT22;31160;49.500;7.772;2022-09-20T08:26:27;12.50;99.90
13794;DHT22;31160;49.500;7.772;2022-09-20T08:28:56;12.80;99.90
13794;DHT22;31160;49.500;7.772;2022-09-20T08:31:25;12.80;99.90
13794;DHT22;31160;49.500;7.772;2022-09-20T08:33:53;13.10;99.90
13794;DHT22;31160;49.500;7.772;2022-09-20T08:36:22;13.30;99.90
13794;DHT22;31160;49.500;7.772;2022-09-20T08:38:50;13.40;99.90
13794;DHT22;31160;49.500;7.772;2022-09-20T08:44:54;13.80;99.90
13794;DHT22;31160;49.500;7.772;2022-09-20T08:47:28;14.00;99.90
13794;DHT22;31160;49.500;7.772;2022-09-20T08:49:57;13.90;99.90
13794;DHT22;31160;49.500;7.772;2022-09-20T08:52:28;14.00;99.90
13794;DHT22;31160;49.500;7.772;2022-09-20T08:55:04;14.10;99.90
13794;DHT22;31160;49.500;7.772;2022-09-20T08:57:38;14.40;99.90
13794;DHT22;31160;49.500;7.772;2022-09-20T09:00:05;14.20;99.90
13794;DHT22;31160;49.500;7.772;2022-09-20T09:02:32;14.20;99.90
13794;DHT22;31160;49.500;7.772;2022-09-20T09:05:30;14.40;99.90
13794;DHT22;31160;49.500;7.772;2022-09-20T09:07:59;14.30;99.90
13794;DHT22;31160;49.500;7.772;2022-09-20T09:10:35;14.50;99.90
13794;DHT22;31160;49.500;7.772;2022-09-20T09:13:16;14.70;99.90
13794;DHT22;31160;49.500;7.772;2022-09-20T09:15:46;14.80;99.90
13794;DHT22;31160;49.500;7.772;2022-09-20T09:18:14;14.80;99.90
13794;DHT22;31160;49.500;7.772;2022-09-20T09:20:41;14.70;99.90
13794;DHT22;31160;49.500;7.772;2022-09-20T09:23:22;15.00;99.90
13794;DHT22;31160;49.500;7.772;2022-09-20T09:25:53;15.30;99.90
13794;DHT22;31160;49.500;7.772;2022-09-20T09:28:25;15.60;99.90
13794;DHT22;31160;49.500;7.772;2022-09-20T09:30:52;15.90;99.90
13794;DHT22;31160;49.500;7.772;2022-09-20T09:33:32;15.80;99.90
13794;DHT22;31160;49.500;7.772;2022-09-20T09:38:31;15.70;99.90
13794;DHT22;31160;49.500;7.772;2022-09-20T09:41:00;15.60;99.90
13794;DHT22;31160;49.500;7.772;2022-09-20T09:43:33;16.00;99.90
13794;DHT22;31160;49.500;7.772;2022-09-20T09:46:20;16.20;99.90
13794;DHT22;31160;49.500;7.772;2022-09-20T09:51:35;16.00;99.90
13794;DHT22;31160;49.500;7.772;2022-09-20T09:54:02;16.00;99.90
13794;DHT22;31160;49.500;7.772;2022-09-20T09:56:54;15.90;99.90
13794;DHT22;31160;49.500;7.772;2022-09-20T09:59:36;16.00;99.90
13794;DHT22;31160;49.500;7.772;2022-09-20T10:02:37;15.90;99.90
13794;DHT22;31160;49.500;7.772;2022-09-20T10:07:48;15.40;99.90
13794;DHT22;31160;49.500;7.772;2022-09-20T10:24:00;15.30;99.90
13794;DHT22;31160;49.500;7.772;2022-09-20T10:29:33;15.00;99.90
13794;DHT22;31160;49.500;7.772;2022-09-20T10:35:32;15.10;99.90
13794;DHT22;31160;49.500;7.772;2022-09-20T10:38:14;15.00;99.90
13794;DHT22;31160;49.500;7.772;2022-09-20T10:49:15;16.30;99.90
13794;DHT22;31160;49.500;7.772;2022-09-20T10:51:58;16.40;99.80
13794;DHT22;31160;49.500;7.772;2022-09-20T10:54:52;15.90;99.90
13794;DHT22;31160;49.500;7.772;2022-09-20T11:02:54;15.90;99.30
13794;DHT22;31160;49.500;7.772;2022-09-20T11:05:44;15.20;99.60
13794;DHT22;31160;49.500;7.772;2022-09-20T11:08:18;15.70;99.50
13794;DHT22;31160;49.500;7.772;2022-09-20T11:10:53;16.10;99.30
13794;DHT22;31160;49.500;7.772;2022-09-20T11:18:47;15.40;98.80
13794;DHT22;31160;49.500;7.772;2022-09-20T11:21:36;15.50;98.40
13794;DHT22;31160;49.500;7.772;2022-09-20T11:26:57;16.00;99.30
13794;DHT22;31160;49.500;7.772;2022-09-20T11:32:14;15.60;99.20
13794;DHT22;31160;49.500;7.772;2022-09-20T11:35:02;15.30;98.90
13794;DHT22;31160;49.500;7.772;2022-09-20T11:37:35;15.30;99.20
13794;DHT22;31160;49.500;7.772;2022-09-20T11:40:21;15.30;99.20
13794;DHT22;31160;49.500;7.772;2022-09-20T11:42:51;15.50;98.50
13794;DHT22;31160;49.500;7.772;2022-09-20T11:45:19;15.70;98.60
13794;DHT22;31160;49.500;7.772;2022-09-20T11:47:55;16.00;97.00
13794;DHT22;31160;49.500;7.772;2022-09-20T11:53:34;16.40;96.10
13794;DHT22;31160;49.500;7.772;2022-09-20T11:56:24;16.40;96.00
13794;DHT22;31160;49.500;7.772;2022-09-20T11:59:05;16.60;94.40
13794;DHT22;31160;49.500;7.772;2022-09-20T12:01:39;16.10;93.20
13794;DHT22;31160;49.500;7.772;2022-09-20T12:04:22;15.60;93.30
13794;DHT22;31160;49.500;7.772;2022-09-20T12:07:04;15.30;92.80
13794;DHT22;31160;49.500;7.772;2022-09-20T12:09:40;15.30;93.30
13794;DHT22;31160;49.500;7.772;2022-09-20T12:12:39;15.40;92.50
13794;DHT22;31160;49.500;7.772;2022-09-20T12:15:30;15.20;92.30
13794;DHT22;31160;49.500;7.772;2022-09-20T12:18:12;15.50;92.10
13794;DHT22;31160;49.500;7.772;2022-09-20T12:28:50;17.30;91.20
13794;DHT22;31160;49.500;7.772;2022-09-20T12:36:33;16.80;87.30
13794;DHT22;31160;49.500;7.772;2022-09-20T12:41:58;17.10;90.00
13794;DHT22;31160;49.500;7.772;2022-09-20T12:44:43;16.90;90.30
13794;DHT22;31160;49.500;7.772;2022-09-20T12:55:44;16.60;91.40
13794;DHT22;31160;49.500;7.772;2022-09-20T13:11:17;15.30;96.00
13794;DHT22;31160;49.500;7.772;2022-09-20T13:19:15;16.10;96.40
13794;DHT22;31160;49.500;7.772;2022-09-20T13:22:12;15.70;95.70
13794;DHT22;31160;49.500;7.772;2022-09-20T13:24:42;15.70;95.30
13794;DHT22;31160;49.500;7.772;2022-09-20T13:27:20;15.90;93.90
13794;DHT22;31160;49.500;7.772;2022-09-20T13:29:48;16.20;95.00
13794;DHT22;31160;49.500;7.772;2022-09-20T13:32:24;15.70;94.80
13794;DHT22;31160;49.500;7.772;2022-09-20T13:35:20;15.90;95.20
13794;DHT22;31160;49.500;7.772;2022-09-20T13:38:05;16.20;94.50
13794;DHT22;31160;49.500;7.772;2022-09-20T13:40:41;16.70;95.10
13794;DHT22;31160;49.500;7.772;2022-09-20T13:45:59;16.40;94.40
13794;DHT22;31160;49.500;7.772;2022-09-20T13:48:27;16.40;94.10
13794;DHT22;31160;49.500;7.772;2022-09-20T13:50:56;16.00;94.60
13794;DHT22;31160;49.500;7.772;2022-09-20T13:53:24;15.60;94.20
13794;DHT22;31160;49.500;7.772;2022-09-20T13:58:42;15.70;95.60
13794;DHT22;31160;49.500;7.772;2022-09-20T14:03:47;15.50;96.30
13794;DHT22;31160;49.500;7.772;2022-09-20T14:06:14;15.50;97.00
13794;DHT22;31160;49.500;7.772;2022-09-20T14:08:44;15.40;97.10
13794;DHT22;31160;49.500;7.772;2022-09-20T14:11:21;15.60;96.90
13794;DHT22;31160;49.500;7.772;2022-09-20T14:13:53;15.80;96.70
13794;DHT22;31160;49.500;7.772;2022-09-20T14:16:22;15.50;97.30
13794;DHT22;31160;49.500;7.772;2022-09-20T14:18:50;15.60;97.30
13794;DHT22;31160;49.500;7.772;2022-09-20T14:21:22;15.80;96.90
13794;DHT22;31160;49.500;7.772;2022-09-20T14:23:50;15.70;97.10
13794;DHT22;31160;49.500;7.772;2022-09-20T14:26:26;16.00;97.10
13794;DHT22;31160;49.500;7.772;2022-09-20T14:28:55;16.10;97.00
13794;DHT22;31160;49.500;7.772;2022-09-20T14:31:25;16.00;97.30
13794;DHT22;31160;49.500;7.772;2022-09-20T14:33:57;15.70;97.40
13794;DHT22;31160;49.500;7.772;2022-09-20T14:36:27;15.80;97.30
13794;DHT22;31160;49.500;7.772;2022-09-20T14:38:56;15.50;97.10
13794;DHT22;31160;49.500;7.772;2022-09-20T14:41:33;15.30;98.00
13794;DHT22;31160;49.500;7.772;2022-09-20T14:44:02;15.10;98.10
13794;DHT22;31160;49.500;7.772;2022-09-20T14:46:32;15.10;98.80
13794;DHT22;31160;49.500;7.772;2022-09-20T14:51:53;15.20;98.20
13794;DHT22;31160;49.500;7.772;2022-09-20T14:54:27;15.40;97.50
13794;DHT22;31160;49.500;7.772;2022-09-20T14:56:57;15.70;97.60
13794;DHT22;31160;49.500;7.772;2022-09-20T14:59:35;16.00;96.90
13794;DHT22;31160;49.500;7.772;2022-09-20T15:02:13;16.20;95.60
13794;DHT22;31160;49.500;7.772;2022-09-20T15:04:51;16.00;95.70
13794;DHT22;31160;49.500;7.772;2022-09-20T15:07:19;15.60;96.00
13794;DHT22;31160;49.500;7.772;2022-09-20T15:09:46;15.20;96.80
13794;DHT22;31160;49.500;7.772;2022-09-20T15:12:16;14.80;96.70
13794;DHT22;31160;49.500;7.772;2022-09-20T15:14:43;14.80;96.40
13794;DHT22;31160;49.500;7.772;2022-09-20T15:17:17;14.80;96.50
13794;DHT22;31160;49.500;7.772;2022-09-20T15:19:45;14.90;96.20
13794;DHT22;31160;49.500;7.772;2022-09-20T15:22:12;14.90;97.40
13794;DHT22;31160;49.500;7.772;2022-09-20T15:24:40;14.60;96.20
13794;DHT22;31160;49.500;7.772;2022-09-20T15:27:08;14.80;96.80
13794;DHT22;31160;49.500;7.772;2022-09-20T15:29:34;14.70;96.80
13794;DHT22;31160;49.500;7.772;2022-09-20T15:32:01;14.50;96.90
13794;DHT22;31160;49.500;7.772;2022-09-20T15:34:30;14.60;97.40
13794;DHT22;31160;49.500;7.772;2022-09-20T15:36:56;14.70;97.00
13794;DHT22;31160;49.500;7.772;2022-09-20T15:39:23;14.70;96.80
13794;DHT22;31160;49.500;7.772;2022-09-20T15:41:51;14.90;97.60
13794;DHT22;31160;49.500;7.772;2022-09-20T15:44:18;15.00;96.80
13794;DHT22;31160;49.500;7.772;2022-09-20T15:46:45;15.20;96.90
13794;DHT22;31160;49.500;7.772;2022-09-20T15:49:13;15.30;96.50
13794;DHT22;31160;49.500;7.772;2022-09-20T15:51:40;15.20;96.70
13794;DHT22;31160;49.500;7.772;2022-09-20T15:54:13;15.00;97.00
13794;DHT22;31160;49.500;7.772;2022-09-20T15:56:40;15.10;97.10
13794;DHT22;31160;49.500;7.772;2022-09-20T15:59:09;14.70;97.60
13794;DHT22;31160;49.500;7.772;2022-09-20T16:01:38;14.70;98.50
13794;DHT22;31160;49.500;7.772;2022-09-20T16:04:13;14.50;98.20
13794;DHT22;31160;49.500;7.772;2022-09-20T16:06:42;14.50;98.70
13794;DHT22;31160;49.500;7.772;2022-09-20T16:09:09;14.30;98.90
13794;DHT22;31160;49.500;7.772;2022-09-20T16:11:37;14.40;98.90
13794;DHT22;31160;49.500;7.772;2022-09-20T16:14:04;14.30;99.50
13794;DHT22;31160;49.500;7.772;2022-09-20T16:16:33;14.30;99.00
13794;DHT22;31160;49.500;7.772;2022-09-20T16:19:06;14.30;99.60
13794;DHT22;31160;49.500;7.772;2022-09-20T16:21:52;14.40;99.80
13794;DHT22;31160;49.500;7.772;2022-09-20T16:24:26;14.40;99.30
13794;DHT22;31160;49.500;7.772;2022-09-20T16:26:53;14.40;99.60
13794;DHT22;31160;49.500;7.772;2022-09-20T16:29:20;14.40;99.80
13794;DHT22;31160;49.500;7.772;2022-09-20T16:31:52;14.20;99.90
13794;DHT22;31160;49.500;7.772;2022-09-20T16:36:49;14.10;99.90
13794;DHT22;31160;49.500;7.772;2022-09-20T16:39:17;14.10;99.90
13794;DHT22;31160;49.500;7.772;2022-09-20T16:41:46;13.90;99.90
13794;DHT22;31160;49.500;7.772;2022-09-20T16:44:14;13.90;99.90
13794;DHT22;31160;49.500;7.772;2022-09-20T16:46:41;14.00;99.90
13794;DHT22;31160;49.500;7.772;2022-09-20T16:49:08;14.10;99.90
13794;DHT22;31160;49.500;7.772;2022-09-20T16:51:41;14.20;99.90
13794;DHT22;31160;49.500;7.772;2022-09-20T16:54:10;14.20;99.90
13794;DHT22;31160;49.500;7.772;2022-09-20T16:56:45;14.20;99.90
13794;DHT22;31160;49.500;7.772;2022-09-20T16:59:14;14.10;99.90
13794;DHT22;31160;49.500;7.772;2022-09-20T17:01:42;14.00;99.90
13794;DHT22;31160;49.500;7.772;2022-09-20T17:04:10;14.10;99.90
13794;DHT22;31160;49.500;7.772;2022-09-20T17:06:40;14.10;99.90
13794;DHT22;31160;49.500;7.772;2022-09-20T17:09:09;14.10;99.90
13794;DHT22;31160;49.500;7.772;2022-09-20T17:11:38;14.20;99.90
13794;DHT22;31160;49.500;7.772;2022-09-20T17:14:05;14.20;99.90
13794;DHT22;31160;49.500;7.772;2022-09-20T17:16:34;14.20;99.90
13794;DHT22;31160;49.500;7.772;2022-09-20T17:19:06;14.10;99.90
13794;DHT22;31160;49.500;7.772;2022-09-20T17:21:36;13.90;99.90
13794;DHT22;31160;49.500;7.772;2022-09-20T17:24:05;13.80;99.90
13794;DHT22;31160;49.500;7.772;2022-09-20T17:26:37;13.90;99.90
13794;DHT22;31160;49.500;7.772;2022-09-20T17:29:07;13.90;99.90
13794;DHT22;31160;49.500;7.772;2022-09-20T17:31:37;13.90;99.90
13794;DHT22;31160;49.500;7.772;2022-09-20T17:34:06;13.80;99.90
13794;DHT22;31160;49.500;7.772;2022-09-20T17:36:36;13.80;99.90
13794;DHT22;31160;49.500;7.772;2022-09-20T17:39:05;13.60;99.90
13794;DHT22;31160;49.500;7.772;2022-09-20T17:41:32;13.60;99.90
13794;DHT22;31160;49.500;7.772;2022-09-20T17:44:03;13.60;99.90
13794;DHT22;31160;49.500;7.772;2022-09-20T17:46:39;13.60;99.90
13794;DHT22;31160;49.500;7.772;2022-09-20T17:49:09;13.60;99.90
13794;DHT22;31160;49.500;7.772;2022-09-20T17:51:43;13.60;99.90
13794;DHT22;31160;49.500;7.772;2022-09-20T17:54:10;13.50;99.90
13794;DHT22;31160;49.500;7.772;2022-09-20T17:56:41;13.50;99.90
13794;DHT22;31160;49.500;7.772;2022-09-20T17:59:10;13.50;99.90
13794;DHT22;31160;49.500;7.772;2022-09-20T18:01:38;13.40;99.90
13794;DHT22;31160;49.500;7.772;2022-09-20T18:04:06;13.10;99.90
13794;DHT22;31160;49.500;7.772;2022-09-20T18:06:38;13.10;99.90
13794;DHT22;31160;49.500;7.772;2022-09-20T18:09:09;13.10;99.90
13794;DHT22;31160;49.500;7.772;2022-09-20T18:11:42;13.10;99.90
13794;DHT22;31160;49.500;7.772;2022-09-20T18:14:11;13.00;99.90
13794;DHT22;31160;49.500;7.772;2022-09-20T18:16:39;13.00;99.90
13794;DHT22;31160;49.500;7.772;2022-09-20T18:19:06;12.90;99.90
13794;DHT22;31160;49.500;7.772;2022-09-20T18:21:35;12.90;99.90
13794;DHT22;31160;49.500;7.772;2022-09-20T18:24:05;12.90;99.90
13794;DHT22;31160;49.500;7.772;2022-09-20T18:26:32;12.70;99.90
13794;DHT22;31160;49.500;7.772;2022-09-20T18:31:31;12.50;99.90
13794;DHT22;31160;49.500;7.772;2022-09-20T18:33:59;12.60;99.90
13794;DHT22;31160;49.500;7.772;2022-09-20T18:36:27;12.60;99.90
13794;DHT22;31160;49.500;7.772;2022-09-20T18:38:55;12.60;99.90
13794;DHT22;31160;49.500;7.772;2022-09-20T18:41:34;12.50;99.90
13794;DHT22;31160;49.500;7.772;2022-09-20T18:44:03;12.50;99.90
13794;DHT22;31160;49.500;7.772;2022-09-20T18:46:30;12.50;99.90
13794;DHT22;31160;49.500;7.772;2022-09-20T18:48:59;12.40;99.90
13794;DHT22;31160;49.500;7.772;2022-09-20T18:51:27;12.20;99.90
13794;DHT22;31160;49.500;7.772;2022-09-20T18:53:55;12.00;99.90
13794;DHT22;31160;49.500;7.772;2022-09-20T18:56:30;11.90;99.90
13794;DHT22;31160;49.500;7.772;2022-09-20T18:59:00;11.80;99.90
13794;DHT22;31160;49.500;7.772;2022-09-20T19:15:25;11.90;99.90
13794;DHT22;31160;49.500;7.772;2022-09-20T19:23:49;11.80;99.90
13794;DHT22;31160;49.500;7.772;2022-09-20T19:26:24;11.90;99.90
13794;DHT22;31160;49.500;7.772;2022-09-20T19:28:53;11.80;99.90
13794;DHT22;31160;49.500;7.772;2022-09-20T19:31:24;11.90;99.90
13794;DHT22;31160;49.500;7.772;2022-09-20T19:33:53;12.00;99.90
13794;DHT22;31160;49.500;7.772;2022-09-20T19:36:22;12.00;99.90
13794;DHT22;31160;49.500;7.772;2022-09-20T19:39:08;11.90;99.90
13794;DHT22;31160;49.500;7.772;2022-09-20T19:41:58;11.90;99.90
13794;DHT22;31160;49.500;7.772;2022-09-20T19:52:35;12.00;99.90
13794;DHT22;31160;49.500;7.772;2022-09-20T19:55:02;12.00;99.90
13794;DHT22;31160;49.500;7.772;2022-09-20T19:57:43;12.00;99.90
13794;DHT22;31160;49.500;7.772;2022-09-20T20:00:14;11.90;99.90
13794;DHT22;31160;49.500;7.772;2022-09-20T20:02:42;12.00;99.90
13794;DHT22;31160;49.500;7.772;2022-09-20T20:05:12;11.90;99.90
13794;DHT22;31160;49.500;7.772;2022-09-20T20:10:52;11.80;99.90
13794;DHT22;31160;49.500;7.772;2022-09-20T20:13:27;11.80;99.90
13794;DHT22;31160;49.500;7.772;2022-09-20T20:16:19;11.70;99.90
13794;DHT22;31160;49.500;7.772;2022-09-20T20:19:23;11.60;99.90
13794;DHT22;31160;49.500;7.772;2022-09-20T20:22:04;11.60;99.90
13794;DHT22;31160;49.500;7.772;2022-09-20T20:24:52;11.60;99.90
13794;DHT22;31160;49.500;7.772;2022-09-20T20:27:19;11.60;99.90
13794;DHT22;31160;49.500;7.772;2022-09-20T20:29:46;11.50;99.90
13794;DHT22;31160;49.500;7.772;2022-09-20T20:32:14;11.40;99.90
13794;DHT22;31160;49.500;7.772;2022-09-20T20:34:41;11.30;99.90
13794;DHT22;31160;49.500;7.772;2022-09-20T20:37:08;11.40;99.90
13794;DHT22;31160;49.500;7.772;2022-09-20T20:39:35;11.40;99.90
13794;DHT22;31160;49.500;7.772;2022-09-20T20:42:02;11.50;99.90
13794;DHT22;31160;49.500;7.772;2022-09-20T20:44:30;11.50;99.90
13794;DHT22;31160;49.500;7.772;2022-09-20T20:46:59;11.50;99.90
13794;DHT22;31160;49.500;7.772;2022-09-20T20:49:26;11.60;99.90
13794;DHT22;31160;49.500;7.772;2022-09-20T20:51:53;11.50;99.90
13794;DHT22;31160;49.500;7.772;2022-09-20T20:54:21;11.50;99.90
13794;DHT22;31160;49.500;7.772;2022-09-20T20:56:49;11.40;99.90
13794;DHT22;31160;49.500;7.772;2022-09-20T20:59:15;11.20;99.90
13794;DHT22;31160;49.500;7.772;2022-09-20T21:01:43;11.30;99.90
13794;DHT22;31160;49.500;7.772;2022-09-20T21:04:12;11.20;99.90
13794;DHT22;31160;49.500;7.772;2022-09-20T21:06:41;11.10;99.90
13794;DHT22;31160;49.500;7.772;2022-09-20T21:09:09;11.10;99.90
13794;DHT22;31160;49.500;7.772;2022-09-20T21:11:38;11.10;99.90
13794;DHT22;31160;49.500;7.772;2022-09-20T21:14:10;11.00;99.90
13794;DHT22;31160;49.500;7.772;2022-09-20T21:16:41;10.90;99.90
13794;DHT22;31160;49.500;7.772;2022-09-20T21:19:09;10.80;99.90
13794;DHT22;31160;49.500;7.772;2022-09-20T21:21:40;10.70;99.90
13794;DHT22;31160;49.500;7.772;2022-09-20T21:24:12;10.80;99.90
13794;DHT22;31160;49.500;7.772;2022-09-20T21:26:40;10.70;99.90
13794;DHT22;31160;49.500;7.772;2022-09-20T21:29:10;10.70;99.90
13794;DHT22;31160;49.500;7.772;2022-09-20T21:31:39;10.60;99.90